Time;durP1;ratioP1;P1;durP2;ratioP2;P2;SDS_P1;SDS_P2;PMS_P1;PMS_P2;Temp;Humidity;BMP_temperature;BMP_pressure;BME280_temperature;BME280_humidity;BME280_pressure;Samples;Min_cycle;Max_cycle;Signal;HPM_P1;HPM_P2
2021/08/03 00:01:09;;;;;;;1.90;1.80;;;23.20;33.90;;;;;;5091705;28;20461;-65
2021/08/03 00:03:48;;;;;;;2.17;2.07;;;23.20;33.90;;;;;;5091633;28;20465;-64
2021/08/03 00:06:17;;;;;;;1.77;1.67;;;23.20;33.90;;;;;;5091357;28;20409;-65
2021/08/03 00:08:48;;;;;;;1.93;1.73;;;23.20;34.00;;;;;;5091396;28;20415;-64
2021/08/03 00:11:13;;;;;;;2.13;1.93;;;23.20;34.00;;;;;;5090160;28;20507;-65
2021/08/03 00:13:39;;;;;;;1.90;1.80;;;23.20;34.00;;;;;;5091448;28;20450;-65
2021/08/03 00:16:10;;;;;;;1.80;1.70;;;23.20;34.00;;;;;;5090021;28;20178;-65
2021/08/03 00:18:37;;;;;;;1.90;1.80;;;23.20;34.00;;;;;;5091574;28;20174;-65
2021/08/03 00:21:03;;;;;;;1.93;1.83;;;23.20;34.10;;;;;;5091206;28;20397;-65
2021/08/03 00:23:29;;;;;;;2.20;1.90;;;23.20;34.00;;;;;;5091234;28;20419;-65
2021/08/03 00:25:55;;;;;;;2.57;1.90;;;23.10;34.00;;;;;;5090878;28;20412;-65
2021/08/03 00:28:22;;;;;;;2.13;2.03;;;23.20;34.10;;;;;;5091253;28;20413;-64
2021/08/03 00:30:48;;;;;;;4.20;1.80;;;23.20;34.10;;;;;;5091056;28;21108;-64
2021/08/03 00:33:15;;;;;;;2.30;2.20;;;23.10;34.00;;;;;;5091138;28;20466;-65
2021/08/03 00:35:41;;;;;;;1.50;1.40;;;23.20;34.20;;;;;;5090687;28;20416;-66
2021/08/03 00:38:07;;;;;;;1.60;1.50;;;23.20;34.10;;;;;;5090982;28;20405;-64
2021/08/03 00:40:38;;;;;;;2.10;1.90;;;23.10;34.00;;;;;;5091000;28;20727;-63
2021/08/03 00:43:03;;;;;;;1.73;1.63;;;23.10;34.00;;;;;;5090833;28;20420;-65
2021/08/03 00:45:29;;;;;;;2.20;2.10;;;23.10;34.10;;;;;;5090951;28;20417;-65
2021/08/03 00:47:55;;;;;;;1.93;1.83;;;23.10;34.10;;;;;;5091419;28;20186;-66
2021/08/03 00:50:20;;;;;;;1.80;1.70;;;23.10;34.10;;;;;;5090613;28;20209;-66
2021/08/03 00:52:46;;;;;;;1.63;1.53;;;23.10;34.10;;;;;;5090631;28;20192;-65
2021/08/03 00:55:12;;;;;;;1.73;1.63;;;23.10;34.00;;;;;;5090598;28;20250;-65
2021/08/03 00:57:38;;;;;;;1.87;1.77;;;23.10;34.00;;;;;;5090503;28;20194;-64
2021/08/03 01:00:06;;;;;;;2.23;2.13;;;23.10;34.00;;;;;;5090666;28;20847;-65
2021/08/03 01:02:32;;;;;;;1.87;1.63;;;23.10;34.00;;;;;;5089192;28;20464;-64
2021/08/03 01:04:58;;;;;;;2.00;1.90;;;23.10;33.90;;;;;;5090954;28;20493;-65
2021/08/03 01:08:02;;;;;;;2.10;2.00;;;23.10;34.00;;;;;;5090575;28;20202;-65
2021/08/03 01:11:21;;;;;;;1.73;1.63;;;23.10;33.90;;;;;;5090356;28;20452;-64
2021/08/03 01:14:21;;;;;;;1.97;1.87;;;23.10;33.90;;;;;;5081355;28;20805;-65
2021/08/03 01:17:03;;;;;;;2.23;2.00;;;23.10;33.90;;;;;;5081617;28;20428;-65
2021/08/03 01:20:00;;;;;;;2.60;2.20;;;23.10;33.90;;;;;;5090319;28;20431;-65
2021/08/03 01:23:05;;;;;;;2.00;1.90;;;23.10;33.90;;;;;;5090431;28;20420;-64
2021/08/03 01:25:46;;;;;;;1.80;1.70;;;23.00;33.80;;;;;;5090202;28;20486;-63
2021/08/03 01:28:17;;;;;;;2.43;2.23;;;23.00;33.80;;;;;;5090397;28;20488;-63
2021/08/03 01:30:46;;;;;;;2.00;1.90;;;23.10;33.90;;;;;;5090154;28;20456;-63
2021/08/03 01:33:14;;;;;;;1.40;1.40;;;23.00;33.80;;;;;;5090363;28;20484;-64
2021/08/03 01:35:42;;;;;;;1.60;1.60;;;23.00;33.80;;;;;;5090113;28;20405;-64
2021/08/03 01:38:10;;;;;;;1.83;1.73;;;23.10;33.90;;;;;;5090248;28;20459;-64
2021/08/03 01:40:40;;;;;;;2.00;1.90;;;23.00;33.80;;;;;;5090009;28;20420;-63
2021/08/03 01:43:06;;;;;;;1.70;1.60;;;23.00;33.80;;;;;;5090138;28;20413;-63
2021/08/03 01:45:32;;;;;;;1.90;1.80;;;23.00;33.70;;;;;;5089928;28;20408;-64
2021/08/03 01:47:59;;;;;;;1.70;1.60;;;23.00;33.80;;;;;;5090066;28;20428;-64
2021/08/03 01:50:25;;;;;;;1.90;1.80;;;23.00;33.80;;;;;;5090133;28;20881;-64
2021/08/03 01:52:53;;;;;;;2.00;1.90;;;23.00;33.80;;;;;;5089923;28;20400;-64
2021/08/03 01:55:20;;;;;;;2.07;1.67;;;23.00;33.80;;;;;;5091172;28;20947;-63
2021/08/03 01:57:46;;;;;;;1.70;1.60;;;23.00;33.80;;;;;;5093958;28;20396;-64
2021/08/03 02:00:12;;;;;;;2.30;2.20;;;23.00;33.90;;;;;;5094141;28;20431;-64
2021/08/03 02:02:39;;;;;;;1.90;1.80;;;23.00;33.80;;;;;;5093976;28;20179;-64
2021/08/03 02:05:06;;;;;;;1.70;1.60;;;23.00;33.80;;;;;;5093750;28;20405;-65
2021/08/03 02:07:32;;;;;;;1.70;1.60;;;23.00;33.70;;;;;;5093695;28;20421;-64
2021/08/03 02:09:58;;;;;;;2.07;1.87;;;23.00;33.70;;;;;;5093573;28;20439;-64
2021/08/03 02:12:25;;;;;;;2.20;1.80;;;23.00;33.60;;;;;;5093822;28;20408;-64
2021/08/03 02:14:50;;;;;;;1.90;1.80;;;23.00;33.70;;;;;;5093745;28;20190;-65
2021/08/03 02:17:16;;;;;;;2.07;1.97;;;23.00;33.60;;;;;;5093620;28;20497;-62
2021/08/03 02:19:42;;;;;;;1.80;1.70;;;23.00;33.70;;;;;;5093476;28;20259;-64
2021/08/03 02:22:08;;;;;;;2.00;1.90;;;23.00;33.70;;;;;;5093433;28;20413;-63
2021/08/03 02:24:34;;;;;;;1.80;1.70;;;23.00;33.70;;;;;;5093443;28;20499;-63
2021/08/03 02:26:59;;;;;;;1.60;1.50;;;23.00;33.70;;;;;;5093521;28;20179;-64
2021/08/03 02:29:25;;;;;;;1.73;1.57;;;23.00;33.70;;;;;;5093740;28;20195;-63
2021/08/03 02:31:59;;;;;;;2.13;1.77;;;23.00;33.80;;;;;;5093204;28;20229;-64
2021/08/03 02:34:51;;;;;;;2.03;1.93;;;23.00;33.70;;;;;;5093247;28;20182;-65
2021/08/03 02:37:23;;;;;;;2.17;2.00;;;23.00;33.70;;;;;;5093507;28;20428;-64
2021/08/03 02:39:52;;;;;;;2.43;1.80;;;22.90;33.70;;;;;;5093363;28;20425;-64
2021/08/03 02:42:19;;;;;;;2.13;1.97;;;22.90;33.60;;;;;;5093179;28;20432;-66
2021/08/03 02:44:49;;;;;;;1.80;1.70;;;22.90;33.70;;;;;;5092893;28;20463;-63
2021/08/03 02:47:19;;;;;;;1.60;1.50;;;23.00;33.80;;;;;;5093195;28;20448;-63
2021/08/03 02:49:50;;;;;;;2.10;2.00;;;22.90;33.60;;;;;;5093305;28;20432;-64
2021/08/03 02:52:21;;;;;;;1.80;1.70;;;22.90;33.70;;;;;;5093290;28;20405;-64
2021/08/03 02:54:56;;;;;;;1.63;1.53;;;22.90;33.70;;;;;;5092946;28;20405;-64
2021/08/03 02:57:23;;;;;;;2.00;1.90;;;23.00;33.80;;;;;;5092822;28;20404;-65
2021/08/03 02:59:52;;;;;;;1.50;1.50;;;22.90;33.60;;;;;;5093023;28;20425;-63
2021/08/03 03:02:19;;;;;;;1.70;1.60;;;22.90;33.70;;;;;;5092750;28;20474;-64
2021/08/03 03:04:53;;;;;;;1.73;1.63;;;22.90;33.70;;;;;;5092679;28;20805;-64
2021/08/03 03:07:27;;;;;;;1.80;1.70;;;22.90;33.70;;;;;;5091740;28;20393;-64
2021/08/03 03:09:55;;;;;;;1.97;1.87;;;22.90;33.70;;;;;;5092573;28;20428;-65
2021/08/03 03:12:23;;;;;;;2.20;2.10;;;22.90;33.70;;;;;;5092649;28;20728;-65
2021/08/03 03:14:51;;;;;;;1.87;1.50;;;22.90;33.70;;;;;;5092380;28;20405;-64
2021/08/03 03:17:18;;;;;;;1.60;1.60;;;22.90;33.80;;;;;;5092721;28;20457;-64
2021/08/03 03:19:44;;;;;;;1.57;1.50;;;22.90;33.70;;;;;;5092500;28;20802;-64
2021/08/03 03:22:10;;;;;;;1.70;1.60;;;22.90;33.80;;;;;;5092338;28;20419;-65
2021/08/03 03:24:37;;;;;;;1.57;1.47;;;22.90;33.70;;;;;;5092170;28;20178;-64
2021/08/03 03:27:03;;;;;;;1.97;1.77;;;22.90;33.70;;;;;;5092289;28;20420;-64
2021/08/03 03:29:30;;;;;;;2.77;1.90;;;22.90;33.70;;;;;;5092413;28;20424;-65
2021/08/03 03:31:57;;;;;;;1.90;1.80;;;22.90;33.80;;;;;;5092003;28;20539;-65
2021/08/03 03:34:26;;;;;;;1.43;1.33;;;22.90;33.80;;;;;;5092636;28;20910;-65
2021/08/03 03:36:52;;;;;;;2.10;2.00;;;22.90;33.70;;;;;;5092243;28;20400;-64
2021/08/03 03:39:19;;;;;;;1.90;1.80;;;22.90;33.60;;;;;;5091991;28;20517;-64
2021/08/03 03:41:49;;;;;;;2.20;2.00;;;22.90;33.60;;;;;;5092056;28;20409;-64
2021/08/03 03:44:15;;;;;;;2.07;1.93;;;22.90;33.70;;;;;;5092021;28;20412;-63
2021/08/03 03:46:46;;;;;;;1.90;1.80;;;22.90;33.60;;;;;;5090481;28;20420;-63
2021/08/03 03:49:16;;;;;;;1.80;1.70;;;22.90;33.70;;;;;;5091950;28;20512;-63
2021/08/03 03:51:43;;;;;;;1.93;1.83;;;22.90;33.60;;;;;;5091665;28;20456;-63
2021/08/03 03:54:13;;;;;;;2.10;1.90;;;22.90;33.60;;;;;;5091900;28;20409;-63
2021/08/03 03:56:48;;;;;;;1.83;1.73;;;22.90;33.60;;;;;;5091719;28;20808;-64
2021/08/03 03:59:18;;;;;;;2.20;1.80;;;22.90;33.60;;;;;;5091856;28;20432;-63
2021/08/03 04:01:47;;;;;;;1.97;1.87;;;22.90;33.50;;;;;;5091601;28;20408;-63
2021/08/03 04:04:14;;;;;;;1.73;1.60;;;22.90;33.50;;;;;;5091621;28;20448;-63
2021/08/03 04:06:39;;;;;;;1.70;1.60;;;22.90;33.50;;;;;;5091355;28;20416;-64
2021/08/03 04:09:15;;;;;;;1.90;1.80;;;22.90;33.50;;;;;;5090283;28;20437;-66
2021/08/03 04:11:45;;;;;;;1.93;1.83;;;22.90;33.50;;;;;;5090250;28;20205;-66
2021/08/03 04:14:13;;;;;;;2.20;1.87;;;22.90;33.50;;;;;;5091389;28;21014;-64
2021/08/03 04:16:40;;;;;;;1.80;1.70;;;22.90;33.50;;;;;;5091072;28;20897;-65
2021/08/03 04:19:05;;;;;;;1.97;1.87;;;22.90;33.60;;;;;;5091313;28;20459;-63
2021/08/03 04:21:31;;;;;;;1.63;1.50;;;22.90;33.60;;;;;;5091263;28;20413;-64
2021/08/03 04:23:56;;;;;;;2.00;1.90;;;22.80;33.50;;;;;;5091239;28;20637;-64
2021/08/03 04:26:22;;;;;;;2.20;2.10;;;22.90;33.70;;;;;;5090956;28;20170;-63
2021/08/03 04:28:47;;;;;;;1.97;1.83;;;22.90;33.70;;;;;;5089979;28;20177;-64
2021/08/03 04:31:13;;;;;;;1.90;1.80;;;22.90;33.70;;;;;;5089977;28;20191;-63
2021/08/03 04:33:38;;;;;;;2.30;2.10;;;22.90;33.80;;;;;;5089971;28;20177;-65
2021/08/03 04:36:06;;;;;;;2.10;1.90;;;22.90;33.90;;;;;;5090744;28;20166;-64
2021/08/03 04:38:32;;;;;;;2.93;1.73;;;22.80;33.80;;;;;;5089902;28;20823;-65
2021/08/03 04:40:57;;;;;;;1.80;1.70;;;22.80;34.00;;;;;;5078352;28;20479;-64
2021/08/03 04:43:23;;;;;;;2.30;2.10;;;22.80;34.10;;;;;;5070624;28;20612;-64
2021/08/03 04:45:48;;;;;;;1.90;1.80;;;22.80;34.20;;;;;;5070176;28;20179;-63
2021/08/03 04:48:14;;;;;;;2.17;1.97;;;22.80;34.30;;;;;;5070545;28;20290;-65
2021/08/03 04:50:40;;;;;;;3.40;2.17;;;22.90;34.50;;;;;;5070428;28;20195;-65
2021/08/03 04:53:05;;;;;;;2.03;1.93;;;22.80;34.40;;;;;;5070566;28;20167;-64
2021/08/03 04:55:31;;;;;;;2.10;2.00;;;22.80;34.40;;;;;;5070326;28;20198;-65
2021/08/03 04:57:56;;;;;;;2.60;2.37;;;22.80;34.50;;;;;;5070311;28;20254;-65
2021/08/03 05:00:22;;;;;;;5.97;2.30;;;22.80;34.60;;;;;;5070178;28;20290;-64
2021/08/03 05:02:47;;;;;;;5.27;2.20;;;22.90;34.90;;;;;;5070376;28;20638;-63
2021/08/03 05:05:13;;;;;;;2.03;1.93;;;22.80;34.80;;;;;;5070126;28;20186;-64
2021/08/03 05:07:39;;;;;;;1.93;1.83;;;22.90;34.90;;;;;;5070442;28;20829;-65
2021/08/03 05:10:10;;;;;;;1.90;1.80;;;22.80;34.80;;;;;;5070385;28;20194;-66
2021/08/03 05:12:36;;;;;;;2.40;2.20;;;22.90;34.90;;;;;;5070654;28;21059;-65
2021/08/03 05:15:02;;;;;;;2.60;2.50;;;22.90;35.70;;;;;;5070163;28;20409;-65
2021/08/03 05:17:29;;;;;;;2.47;2.27;;;22.90;35.10;;;;;;5070385;28;20938;-66
2021/08/03 05:19:55;;;;;;;2.73;2.50;;;22.90;34.90;;;;;;5070310;28;20557;-65
2021/08/03 05:22:21;;;;;;;4.63;2.70;;;22.90;34.00;;;;;;5070374;28;20559;-67
2021/08/03 05:24:46;;;;;;;2.30;2.20;;;22.80;33.40;;;;;;5071694;28;20218;-68
2021/08/03 05:27:12;;;;;;;2.30;2.20;;;22.90;33.50;;;;;;5071851;28;20221;-67
2021/08/03 05:29:37;;;;;;;2.73;2.60;;;22.90;33.60;;;;;;5070812;28;20282;-66
2021/08/03 05:32:03;;;;;;;2.60;2.40;;;22.80;33.80;;;;;;5074099;28;20211;-67
2021/08/03 05:34:29;;;;;;;2.87;2.67;;;22.90;33.90;;;;;;5075585;28;20198;-68
2021/08/03 05:36:54;;;;;;;2.77;2.57;;;22.90;34.00;;;;;;5075634;28;20171;-67
2021/08/03 05:39:20;;;;;;;2.63;2.30;;;22.90;34.00;;;;;;5075927;28;20237;-66
2021/08/03 05:41:46;;;;;;;2.30;2.10;;;22.90;34.00;;;;;;5074907;28;20215;-66
2021/08/03 05:44:11;;;;;;;2.70;2.50;;;22.90;33.90;;;;;;5074002;28;20171;-68
2021/08/03 05:46:37;;;;;;;2.20;2.10;;;22.90;33.80;;;;;;5073665;28;20767;-68
2021/08/03 05:49:03;;;;;;;2.20;2.07;;;22.90;34.10;;;;;;5073608;28;20222;-66
2021/08/03 05:51:29;;;;;;;2.83;2.40;;;22.90;33.80;;;;;;5073741;28;20290;-66
2021/08/03 05:53:54;;;;;;;2.40;2.27;;;22.90;33.70;;;;;;5073760;28;20547;-67
2021/08/03 05:56:20;;;;;;;2.60;2.27;;;22.90;33.60;;;;;;5082338;28;20507;-68
2021/08/03 05:58:45;;;;;;;2.10;1.90;;;22.90;33.60;;;;;;5094044;28;20192;-66
2021/08/03 06:01:11;;;;;;;2.20;2.10;;;22.90;33.40;;;;;;5094020;28;20263;-66
2021/08/03 06:03:36;;;;;;;2.53;2.43;;;23.00;33.60;;;;;;5094056;28;20181;-67
2021/08/03 06:06:06;;;;;;;2.83;2.03;;;23.00;33.30;;;;;;5093728;28;20170;-68
2021/08/03 06:08:34;;;;;;;2.87;2.27;;;22.90;33.00;;;;;;5093878;28;20171;-67
2021/08/03 06:11:01;;;;;;;2.07;1.97;;;22.90;32.70;;;;;;5093687;28;20538;-69
2021/08/03 06:13:28;;;;;;;2.13;1.93;;;22.90;32.70;;;;;;5093860;28;20925;-67
2021/08/03 06:15:58;;;;;;;2.67;2.20;;;22.90;32.40;;;;;;5094078;28;20407;-67
2021/08/03 06:18:35;;;;;;;2.10;2.00;;;22.90;32.40;;;;;;5093538;28;20412;-65
2021/08/03 06:21:02;;;;;;;2.60;2.00;;;22.90;32.40;;;;;;5093584;28;20447;-64
2021/08/03 06:23:28;;;;;;;2.10;1.90;;;22.90;32.40;;;;;;5093425;28;20903;-64
2021/08/03 06:25:58;;;;;;;2.27;2.07;;;22.90;32.40;;;;;;5093264;28;20424;-65
2021/08/03 06:28:24;;;;;;;1.80;1.70;;;22.90;32.40;;;;;;5093353;28;20651;-65
2021/08/03 06:30:51;;;;;;;2.40;1.90;;;22.90;32.40;;;;;;5093264;28;20563;-66
2021/08/03 06:33:18;;;;;;;2.20;2.10;;;22.90;32.40;;;;;;5093364;28;20404;-65
2021/08/03 06:35:45;;;;;;;2.83;2.50;;;22.90;32.40;;;;;;5093152;28;20918;-65
2021/08/03 06:38:11;;;;;;;2.73;2.20;;;22.90;32.40;;;;;;5093189;28;20473;-65
2021/08/03 06:40:44;;;;;;;2.00;1.90;;;22.90;32.40;;;;;;5093178;28;20436;-65
2021/08/03 06:43:17;;;;;;;2.40;1.70;;;22.90;32.30;;;;;;5093208;28;20397;-64
2021/08/03 06:45:48;;;;;;;2.53;2.03;;;22.90;32.20;;;;;;5093188;28;20401;-65
2021/08/03 06:48:25;;;;;;;4.63;2.27;;;22.90;32.00;;;;;;5093035;28;20460;-65
2021/08/03 06:51:00;;;;;;;4.50;2.20;;;23.00;32.20;;;;;;5092745;28;20822;-63
2021/08/03 06:53:28;;;;;;;6.63;2.40;;;23.00;31.80;;;;;;5093070;28;20495;-64
2021/08/03 06:55:57;;;;;;;3.83;2.33;;;22.90;31.70;;;;;;5093391;28;20898;-65
2021/08/03 06:58:34;;;;;;;3.93;1.97;;;23.00;31.60;;;;;;5093026;28;20443;-64
2021/08/03 07:01:03;;;;;;;2.47;1.93;;;22.90;31.30;;;;;;5091976;28;20428;-65
2021/08/03 07:03:34;;;;;;;2.90;1.87;;;23.00;31.50;;;;;;5093001;28;20787;-64
2021/08/03 07:06:00;;;;;;;5.57;2.80;;;23.00;31.30;;;;;;5090285;28;20435;-64
2021/08/03 07:08:26;;;;;;;2.90;2.10;;;23.00;31.30;;;;;;5091652;28;20416;-65
2021/08/03 07:10:53;;;;;;;2.00;1.90;;;23.00;31.30;;;;;;5092861;28;20856;-67
2021/08/03 07:13:19;;;;;;;1.83;1.73;;;23.00;31.30;;;;;;5092287;28;20412;-68
2021/08/03 07:15:46;;;;;;;5.70;2.47;;;23.00;31.50;;;;;;5092446;28;20755;-68
2021/08/03 07:18:12;;;;;;;2.30;2.20;;;23.00;31.50;;;;;;5092446;28;20416;-68
2021/08/03 07:20:42;;;;;;;2.03;1.90;;;23.00;31.60;;;;;;5091475;28;20486;-64
2021/08/03 07:23:09;;;;;;;2.20;2.00;;;23.00;31.80;;;;;;5092617;28;20541;-65
2021/08/03 07:25:35;;;;;;;2.20;2.10;;;23.00;31.90;;;;;;5092940;28;20911;-65
2021/08/03 07:28:01;;;;;;;3.07;2.80;;;23.00;32.10;;;;;;5092679;28;20482;-67
2021/08/03 07:30:27;;;;;;;3.20;2.57;;;23.00;32.20;;;;;;5092375;28;20494;-66
2021/08/03 07:32:52;;;;;;;5.60;2.83;;;23.00;32.50;;;;;;5092511;28;20220;-68
2021/08/03 07:35:18;;;;;;;2.30;2.00;;;23.10;32.60;;;;;;5092904;28;20177;-66
2021/08/03 07:37:43;;;;;;;3.30;2.30;;;23.10;32.60;;;;;;5092657;28;20175;-67
2021/08/03 07:40:09;;;;;;;3.17;2.27;;;23.00;32.50;;;;;;5092482;28;20200;-67
2021/08/03 07:42:35;;;;;;;3.90;2.40;;;23.10;32.60;;;;;;5092263;28;20171;-67
2021/08/03 07:45:02;;;;;;;2.80;2.60;;;23.10;32.60;;;;;;5091813;28;20228;-66
2021/08/03 07:47:28;;;;;;;5.83;2.53;;;23.10;32.60;;;;;;5092438;28;20464;-68
2021/08/03 07:49:53;;;;;;;5.10;2.97;;;23.10;32.60;;;;;;5092707;28;20475;-69
2021/08/03 07:52:19;;;;;;;3.37;2.70;;;23.10;32.60;;;;;;5092087;28;20209;-68
2021/08/03 07:54:45;;;;;;;5.43;2.70;;;23.10;32.60;;;;;;5091768;28;20179;-66
2021/08/03 07:57:10;;;;;;;2.50;2.40;;;23.00;32.50;;;;;;5092132;28;20478;-68
2021/08/03 07:59:36;;;;;;;2.93;2.60;;;23.10;32.60;;;;;;5090857;28;20204;-69
2021/08/03 08:02:02;;;;;;;2.77;2.57;;;23.10;32.60;;;;;;5091933;28;20198;-68
2021/08/03 08:04:27;;;;;;;2.47;2.27;;;23.10;32.60;;;;;;5091788;28;20549;-68
2021/08/03 08:06:53;;;;;;;2.80;2.60;;;23.10;32.60;;;;;;5092577;28;20415;-67
2021/08/03 08:09:18;;;;;;;3.30;2.70;;;23.10;32.60;;;;;;5093176;28;20206;-68
2021/08/03 08:11:44;;;;;;;3.53;2.80;;;23.10;32.60;;;;;;5092558;28;20811;-67
2021/08/03 08:14:10;;;;;;;3.43;2.40;;;23.10;32.60;;;;;;5091617;28;20167;-68
2021/08/03 08:16:35;;;;;;;3.73;2.83;;;23.10;32.60;;;;;;5091182;28;20170;-67
2021/08/03 08:19:01;;;;;;;3.00;2.80;;;23.10;32.60;;;;;;5092672;28;20187;-67
2021/08/03 08:21:32;;;;;;;3.40;2.50;;;23.10;32.60;;;;;;5092746;28;20179;-69
2021/08/03 08:23:57;;;;;;;3.60;2.70;;;23.10;32.60;;;;;;5092276;28;20253;-67
2021/08/03 08:26:23;;;;;;;2.83;2.63;;;23.10;32.60;;;;;;5090578;28;20507;-68
2021/08/03 08:28:48;;;;;;;3.93;3.23;;;23.10;32.60;;;;;;5091014;28;20170;-68
2021/08/03 08:31:15;;;;;;;2.93;2.70;;;23.10;32.60;;;;;;5090889;28;20202;-69
2021/08/03 08:33:41;;;;;;;3.20;3.00;;;23.10;32.60;;;;;;5091166;28;20510;-66
2021/08/03 08:36:06;;;;;;;3.53;3.30;;;23.10;32.60;;;;;;5090647;28;20459;-67
2021/08/03 08:38:32;;;;;;;3.50;3.30;;;23.10;32.60;;;;;;5090871;28;20178;-67
2021/08/03 08:40:58;;;;;;;3.03;2.83;;;23.10;32.60;;;;;;5091020;28;20201;-66
2021/08/03 08:43:25;;;;;;;3.80;3.50;;;23.10;32.60;;;;;;5090841;28;20179;-68
2021/08/03 08:45:54;;;;;;;4.30;3.00;;;23.10;32.60;;;;;;5090614;28;20404;-66
2021/08/03 08:48:20;;;;;;;3.97;3.43;;;23.10;32.60;;;;;;5090822;28;20432;-65
2021/08/03 08:50:46;;;;;;;3.47;3.27;;;23.20;32.70;;;;;;5090999;28;20457;-66
2021/08/03 08:53:12;;;;;;;4.10;3.70;;;23.10;32.60;;;;;;5090457;28;20822;-66
2021/08/03 08:55:38;;;;;;;3.37;3.07;;;23.10;32.60;;;;;;5090758;28;20193;-68
2021/08/03 08:58:04;;;;;;;3.67;3.37;;;23.10;32.60;;;;;;5090705;28;20609;-66
2021/08/03 09:00:30;;;;;;;4.00;3.70;;;23.20;32.70;;;;;;5090796;28;20681;-63
2021/08/03 09:02:57;;;;;;;3.57;3.27;;;23.20;32.70;;;;;;5090314;28;20423;-64
2021/08/03 09:05:32;;;;;;;8.00;3.43;;;23.20;32.70;;;;;;5089527;28;20194;-64
2021/08/03 09:08:00;;;;;;;3.13;2.90;;;23.20;32.70;;;;;;5090288;28;20412;-64
2021/08/03 09:10:33;;;;;;;3.50;3.23;;;23.20;32.70;;;;;;5090334;28;20448;-64
2021/08/03 09:13:04;;;;;;;3.27;3.07;;;23.20;32.70;;;;;;5090610;28;20393;-64
2021/08/03 09:15:31;;;;;;;6.10;3.37;;;23.20;32.70;;;;;;5089992;28;20401;-64
2021/08/03 09:18:29;;;;;;;3.87;3.57;;;23.20;32.70;;;;;;5090233;28;20772;-65
2021/08/03 09:20:56;;;;;;;3.20;2.90;;;23.20;32.70;;;;;;5090623;28;20432;-65
2021/08/03 09:23:46;;;;;;;3.07;2.83;;;23.20;32.70;;;;;;5090258;28;20491;-65
2021/08/03 09:26:13;;;;;;;2.97;2.77;;;23.20;32.70;;;;;;5091491;28;20404;-66
2021/08/03 09:29:00;;;;;;;3.50;3.30;;;23.20;32.70;;;;;;5091716;28;20495;-65
2021/08/03 09:31:27;;;;;;;4.10;3.10;;;23.20;32.70;;;;;;5090372;28;20459;-65
2021/08/03 09:33:53;;;;;;;3.23;3.07;;;23.20;32.70;;;;;;5090401;28;20409;-65
2021/08/03 09:36:44;;;;;;;3.40;3.20;;;23.20;32.70;;;;;;5090074;28;20491;-65
2021/08/03 09:39:42;;;;;;;3.20;2.90;;;23.20;32.70;;;;;;5089898;28;20239;-65
2021/08/03 09:42:15;;;;;;;3.13;2.90;;;23.20;32.70;;;;;;5090400;28;20428;-65
2021/08/03 09:44:49;;;;;;;3.70;3.43;;;23.20;32.70;;;;;;5089916;28;20824;-65
2021/08/03 09:47:16;;;;;;;3.20;2.90;;;23.10;32.80;;;;;;5090248;28;20441;-65
2021/08/03 09:49:44;;;;;;;2.87;2.67;;;23.10;32.80;;;;;;5089877;28;20460;-65
2021/08/03 09:52:11;;;;;;;2.43;2.23;;;23.20;33.10;;;;;;5089419;28;20862;-64
2021/08/03 09:54:38;;;;;;;3.00;2.63;;;23.10;33.00;;;;;;5089769;28;20925;-64
2021/08/03 09:57:16;;;;;;;3.10;2.90;;;23.20;33.20;;;;;;5089860;28;20396;-65
2021/08/03 09:59:42;;;;;;;3.03;2.83;;;23.20;33.20;;;;;;5090500;28;20440;-64
2021/08/03 10:02:15;;;;;;;2.93;2.73;;;23.20;33.20;;;;;;5090351;28;20420;-65
2021/08/03 10:04:42;;;;;;;2.50;2.30;;;23.20;33.40;;;;;;5089726;28;20560;-65
2021/08/03 10:07:08;;;;;;;3.23;2.93;;;23.10;33.30;;;;;;5089919;28;20447;-64
2021/08/03 10:09:35;;;;;;;3.80;2.73;;;23.10;33.40;;;;;;5089988;28;20486;-65
2021/08/03 10:12:00;;;;;;;3.17;2.97;;;23.20;33.60;;;;;;5089982;28;20525;-65
2021/08/03 10:14:26;;;;;;;3.03;2.83;;;23.20;33.70;;;;;;5089772;28;20417;-64
2021/08/03 10:16:53;;;;;;;3.00;2.67;;;23.20;33.80;;;;;;5093088;28;20548;-64
2021/08/03 10:19:35;;;;;;;3.97;2.90;;;23.20;33.90;;;;;;5094132;28;20198;-64
2021/08/03 10:22:24;;;;;;;3.83;3.53;;;23.20;34.00;;;;;;5093658;28;20423;-65
2021/08/03 10:25:14;;;;;;;4.90;3.13;;;23.10;33.90;;;;;;5093449;28;20460;-65
2021/08/03 10:27:44;;;;;;;3.07;2.83;;;23.20;34.10;;;;;;5094775;28;20432;-66
2021/08/03 10:30:34;;;;;;;3.30;3.00;;;23.20;34.10;;;;;;5093665;28;20464;-66
2021/08/03 10:33:40;;;;;;;3.93;3.17;;;23.20;34.20;;;;;;5093530;28;20765;-65
2021/08/03 10:36:05;;;;;;;2.80;2.60;;;23.20;34.30;;;;;;5093435;28;20422;-64
2021/08/03 10:38:32;;;;;;;2.70;2.50;;;23.20;34.30;;;;;;5093400;28;20401;-65
2021/08/03 10:41:08;;;;;;;2.93;2.60;;;23.20;34.40;;;;;;5094399;28;20263;-66
2021/08/03 10:43:34;;;;;;;2.83;2.63;;;23.10;34.30;;;;;;5093496;28;20404;-65
2021/08/03 10:46:08;;;;;;;2.90;2.70;;;23.20;34.40;;;;;;5093047;28;20537;-65
2021/08/03 10:48:40;;;;;;;2.20;2.10;;;23.20;34.40;;;;;;5092848;28;20194;-65
2021/08/03 10:51:17;;;;;;;2.23;2.03;;;23.20;34.30;;;;;;5093146;28;20460;-66
2021/08/03 10:54:02;;;;;;;5.77;3.40;;;23.20;34.40;;;;;;5092889;28;20409;-65
2021/08/03 10:56:29;;;;;;;7.00;6.40;;;23.20;34.40;;;;;;5092290;28;20711;-66
2021/08/03 10:59:37;;;;;;;12.40;11.10;;;23.20;34.50;;;;;;5092628;28;20938;-64
2021/08/03 11:02:04;;;;;;;16.27;14.67;;;23.20;34.50;;;;;;5092926;28;20465;-67
2021/08/03 11:04:46;;;;;;;16.43;14.83;;;23.20;34.60;;;;;;5092624;28;20405;-65
2021/08/03 11:07:27;;;;;;;17.33;15.53;;;23.20;34.50;;;;;;5093629;28;20435;-68
2021/08/03 11:09:54;;;;;;;15.40;13.40;;;23.20;34.50;;;;;;5093932;28;20530;-68
2021/08/03 11:12:47;;;;;;;17.00;13.80;;;23.20;34.50;;;;;;5092684;28;20460;-67
2021/08/03 11:15:21;;;;;;;15.77;13.97;;;23.20;34.60;;;;;;5092380;28;20413;-67
2021/08/03 11:17:58;;;;;;;13.33;12.03;;;23.20;34.60;;;;;;5092761;28;20427;-68
2021/08/03 11:20:36;;;;;;;13.37;12.07;;;23.20;34.70;;;;;;5092654;28;20893;-68
2021/08/03 11:23:07;;;;;;;12.67;11.40;;;23.20;34.70;;;;;;5092338;28;20424;-67
2021/08/03 11:25:33;;;;;;;12.47;10.63;;;23.30;34.80;;;;;;5092692;28;20417;-69
2021/08/03 11:28:12;;;;;;;11.43;10.23;;;23.30;34.80;;;;;;5090334;28;20885;-67
2021/08/03 11:30:38;;;;;;;10.00;8.93;;;23.30;34.80;;;;;;5091943;28;20448;-67
2021/08/03 11:33:05;;;;;;;9.53;8.53;;;23.30;34.80;;;;;;5091953;28;20769;-65
2021/08/03 11:35:31;;;;;;;8.57;7.77;;;23.30;34.80;;;;;;5091848;28;20411;-66
2021/08/03 11:38:02;;;;;;;8.67;7.77;;;23.30;34.80;;;;;;5092384;28;20404;-67
2021/08/03 11:40:28;;;;;;;8.43;6.60;;;23.30;34.80;;;;;;5092325;28;20257;-67
2021/08/03 11:42:57;;;;;;;11.20;6.40;;;23.30;34.80;;;;;;5092143;28;20447;-67
2021/08/03 11:45:23;;;;;;;6.17;5.67;;;23.30;34.80;;;;;;5091657;28;20166;-68
2021/08/03 11:47:58;;;;;;;6.30;5.70;;;23.30;34.80;;;;;;5092531;28;20437;-68
2021/08/03 11:50:29;;;;;;;7.73;6.03;;;23.30;34.80;;;;;;5092291;28;20485;-66
2021/08/03 11:53:19;;;;;;;5.50;5.10;;;23.30;34.90;;;;;;5091445;28;20413;-67
2021/08/03 11:55:54;;;;;;;5.00;4.60;;;23.30;34.80;;;;;;5092748;28;20436;-68
2021/08/03 11:58:21;;;;;;;6.13;5.40;;;23.30;34.80;;;;;;5093086;28;20404;-67
2021/08/03 12:00:55;;;;;;;5.20;4.60;;;23.30;34.60;;;;;;5092170;28;20942;-67
2021/08/03 12:03:33;;;;;;;5.20;4.70;;;23.30;34.50;;;;;;5092008;28;20409;-66
2021/08/03 12:06:00;;;;;;;4.40;4.10;;;23.30;34.40;;;;;;5092079;28;20400;-66
2021/08/03 12:08:32;;;;;;;4.13;3.50;;;23.30;34.40;;;;;;5092487;28;20495;-68
2021/08/03 12:10:58;;;;;;;4.73;4.33;;;23.30;34.30;;;;;;5092835;28;20544;-67
2021/08/03 12:13:26;;;;;;;4.60;4.20;;;23.30;34.20;;;;;;5092814;28;20444;-66
2021/08/03 12:15:55;;;;;;;4.47;3.10;;;23.30;34.20;;;;;;5092264;28;20689;-65
2021/08/03 12:18:21;;;;;;;3.37;3.17;;;23.30;34.10;;;;;;5093362;28;20407;-66
2021/08/03 12:20:49;;;;;;;3.30;3.07;;;23.30;34.20;;;;;;5089001;28;20515;-66
2021/08/03 12:23:23;;;;;;;3.67;3.23;;;23.30;34.20;;;;;;5092100;28;20649;-67
2021/08/03 12:25:53;;;;;;;3.07;2.87;;;23.30;34.00;;;;;;5090800;28;20404;-68
2021/08/03 12:28:30;;;;;;;3.10;2.90;;;23.30;34.00;;;;;;5091397;28;20415;-69
2021/08/03 12:30:56;;;;;;;3.10;2.80;;;23.30;33.90;;;;;;5092487;28;20609;-66
2021/08/03 12:33:33;;;;;;;3.53;3.23;;;23.30;33.90;;;;;;5091657;28;20738;-66
2021/08/03 12:36:09;;;;;;;3.10;2.90;;;23.30;33.90;;;;;;5091152;28;20412;-69
2021/08/03 12:38:35;;;;;;;2.73;2.53;;;23.30;33.90;;;;;;5091026;28;20983;-68
2021/08/03 12:41:18;;;;;;;3.00;2.80;;;23.30;33.80;;;;;;5090903;28;20489;-67
2021/08/03 12:43:44;;;;;;;2.80;2.60;;;23.30;33.70;;;;;;5092257;28;20494;-69
2021/08/03 12:46:10;;;;;;;2.80;2.60;;;23.30;33.60;;;;;;5092729;28;20873;-67
2021/08/03 12:48:37;;;;;;;2.80;2.70;;;23.30;33.50;;;;;;5090672;28;20598;-69
2021/08/03 12:51:03;;;;;;;2.40;2.20;;;23.30;33.20;;;;;;5091911;28;20234;-67
2021/08/03 12:53:31;;;;;;;2.27;2.17;;;23.30;32.90;;;;;;5092663;28;20411;-66
2021/08/03 12:56:17;;;;;;;2.63;2.40;;;23.30;32.80;;;;;;5091844;28;20412;-67
2021/08/03 12:58:45;;;;;;;2.40;2.30;;;23.30;32.80;;;;;;5090918;28;20446;-66